CEQ3 weather

Camrose Airport
Camrose, Alberta, Canada

Public forecast

Using degrees Celsius for public forecast. Weather courtesy of forecast.io.

Closest aviation weather report (METAR) to Camrose Airport

Closest report is Edmonton International Airport, 31.9 nm (59.1 km) WNW. Retrieved 2019/10/21 07:00 UTC (15 minutes ago):

CYEG 210700Z 11006KT 20SM FEW090 BKN110 BKN250 M03/M05 A2982 RMK AC2AC2CI2 VIRGA NW - N SLP130

Closest aviation forecast (TAF) to Camrose Airport

Closest forecast is Edmonton International Airport, 31.9 nm (59.1 km) WNW. Retrieved 2019/10/21 06:42 UTC (33 minutes ago):

TAF TAF CYEG 210538Z 2106/2206 13007KT P6SM SCT100 BKN250 TEMPO 2106/2110 BKN100 BKN250 FM211500 20005KT P6SM SCT060 BECMG 2117/2119 29007KT FM212100 29008KT P6SM BKN060 FM220300 19005KT P6SM SCT060 RMK NXT FCST BY 210900Z